UMMS Airport Information

Runway Information
Runway 13 Length 11946 ft width 197 ft
Elevation 640 ft Threshold 0 ft Heading 139
Runway 31 Length 11946 ft Width 197 ft
Elevation 670 ft Threshold 0 ft Heading 319
Airport Frequencies
Type APP Name MINSK APP Frequency 125.9 MHZ
Type ATIS Name ATIS Frequency 128.85 MHZ
Type GND Name GND Frequency 121.7 MHZ
Type PMSV Name MINSK VOLM Frequency 126.675 MHZ
Type RDR Name MINSK RADA Frequency 125.25 MHZ
Type TWR Name TWR Frequency 118.3 MHZ
Airport Navaids
Type NDB Name Minsk-2 Frequency 635 KHZ
Type VOR-DME Name Minsk-2 Frequency 113600 KHZ
Type NDB Name Minsk-2 Frequency 635 KHZ
Airport Weather Information & NOTAM
ADDS - METARS form results

(1225 UTC 20 November 2019)
Data provider http://aviationweather.gov/metar/data/
 
METAR text: UMMS 201200Z 11005G08MPS 9000 OVC005 05/04 Q1031 R88/190055 NOSIG RMK QBB160
Conditions at: UMMS (MINSK , BY) observed 1200 UTC 20 November 2019
Temperature: 5.0°C (41°F)
Dewpoint: 4.0°C (39°F) [RH = 93%]
Pressure (altimeter): 30.44 inches Hg (1031.0 mb)
Winds: from the ESE (110 degrees) at 12 MPH (10 knots; 5.1 m/s)
gusting to 18 MPH (16 knots; 8.2 m/s)
Visibility: 6 miles ( 9 km)
Ceiling: 500 feet AGL
Clouds: overcast cloud deck at 500 feet AGL
Weather: no significant weather observed at this time

METAR text: UMMS 201148Z 11003G06MPS 080V140 5000 BR OVC004 05/05 Q1031 R88/190055 NOSIG RMK QBB130
Conditions at: UMMS (MINSK , BY) observed 1148 UTC 20 November 2019
Temperature: 5.0°C (41°F)
Dewpoint: 5.0°C (41°F) [RH = 100%]
Pressure (altimeter): 30.44 inches Hg (1031.0 mb)
Winds: from the ESE (110 degrees) at 7 MPH (6 knots; 3.1 m/s)
gusting to 14 MPH (12 knots; 6.2 m/s)
Visibility: 3 miles ( 5 km)
Ceiling: 400 feet AGL
Clouds: overcast cloud deck at 400 feet AGL
Weather: BR  (mist)

METAR text: UMMS 201132Z 10005MPS 4900 BR OVC004 05/05 Q1031 R88/190055 NOSIG RMK QBB120
Conditions at: UMMS (MINSK , BY) observed 1132 UTC 20 November 2019
Temperature: 5.0°C (41°F)
Dewpoint: 5.0°C (41°F) [RH = 100%]
Pressure (altimeter): 30.44 inches Hg (1031.0 mb)
Winds: from the E (100 degrees) at 12 MPH (10 knots; 5.1 m/s)
Visibility: 3 miles ( 5 km)
Ceiling: 400 feet AGL
Clouds: overcast cloud deck at 400 feet AGL
Weather: BR  (mist)

METAR text: UMMS 201130Z 10004MPS 5000 BR OVC004 05/05 Q1031 R88/190055 NOSIG RMK QBB120
Conditions at: UMMS (MINSK , BY) observed 1130 UTC 20 November 2019
Temperature: 5.0°C (41°F)
Dewpoint: 5.0°C (41°F) [RH = 100%]
Pressure (altimeter): 30.44 inches Hg (1031.0 mb)
Winds: from the E (100 degrees) at 9 MPH (8 knots; 4.1 m/s)
Visibility: 3 miles ( 5 km)
Ceiling: 400 feet AGL
Clouds: overcast cloud deck at 400 feet AGL
Weather: BR  (mist)

Forecast for: UMMS (MINSK , BY)
Text: TAF UMMS 201110Z 2012/2112 11005G10MPS 5000 BR OVC004 TX05/2012Z TNM00/2102Z
Forecast period: 1200 UTC 20 November 2019 to 1200 UTC 21 November 2019
Forecast type: FROM: standard forecast or significant change
Winds: from the ESE (110 degrees) at 12 MPH (10 knots; 5.1 m/s)
gusting to 22 MPH (19 knots; 9.8 m/s)
Visibility: 3 miles (5 km)
Ceiling: 400 feet AGL
Clouds: overcast cloud deck at 400 feet AGL
Weather: BR  (mist)
Text: TEMPO 2012/2016 1200 -DZ OVC003
Forecast period: 1200 to 1600 UTC 20 November 2019
Forecast type: TEMPORARY: The following changes expected for less than half the time period
Visibility: 0.75 miles (1.21 km)
Ceiling: 300 feet AGL
Clouds: overcast cloud deck at 300 feet AGL
Weather: -DZ  (light drizzle)
Text: TEMPO 2016/2106 1200 -FZDZ OVC003
Forecast period: 1600 UTC 20 November 2019 to 0600 UTC 21 November 2019
Forecast type: TEMPORARY: The following changes expected for less than half the time period
Visibility: 0.75 miles (1.21 km)
Ceiling: 300 feet AGL
Clouds: overcast cloud deck at 300 feet AGL
Weather: -FZDZ  (light freezing drizzle)
Text: TEMPO 2106/2112 13010G15MPS 2100 -RASN BKN003
Forecast period: 0600 to 1200 UTC 21 November 2019
Forecast type: TEMPORARY: The following changes expected for less than half the time period
Winds: from the SE (130 degrees) at 22 MPH (19 knots; 9.8 m/s)
gusting to 33 MPH (29 knots; 14.9 m/s)
Visibility: 1.30 miles (2.09 km)
Ceiling: 300 feet AGL
Clouds: broken clouds at 300 feet AGL
Weather: -RA -SN  (light rain, light snow)